Home   Weather   USA   Spooner   Past weeks
Flag for USA

Past Weather in Spooner, Wisconsin, USA — Yesterday and Last 2 Weeks

Currently: 16 °F. Clear. (Weather station: Burnett County Airport, USA). See more current weather

Past Weather in Spooner — Graph

°F

Spooner Temperature Yesterday

Maximum temperature yesterday: 26 °F (at 2:35 pm)
Minimum temperature yesterday: 3 °F (at 1:15 am)
Average temperature yesterday: 14 °F

High & Low Weather Summary for the Past Weeks

 TemperatureHumidityPressure
High29 °F (Jan 23, 10:15 pm)98% (Jan 23, 7:35 pm)30.62 "Hg (Jan 23, 7:35 pm)
Low-26 °F (Feb 3, 5:15 am)35% (Feb 2, 1:35 pm)29.37 "Hg (Jan 27, 5:55 am)
Average8 °F73%30.08 "Hg
* Reported Jan 22 4:15 am — Feb 6 4:55 am, Spooner. Weather by CustomWeather, © 2023

Note: Actual official high and low records may vary slightly from our data, if they occured in-between our weather recording intervals... More about our weather records

Spooner Weather History for the Previous 24 Hours

Scroll right to see more
 ConditionsComfort  
Time TempWeatherWind HumidityBarometerVisibility
4:55 am
Mon, Feb 6
2 °FClear.No wind82%30.04 "Hg10 mi
4:35 am3 °FClear.No wind81%30.04 "Hg10 mi
4:15 am5 °FClear.No wind85%30.04 "Hg10 mi
3:55 am3 °FClear.No wind83%30.05 "Hg10 mi
3:35 am3 °FClear.No wind80%30.06 "Hg10 mi
3:15 am2 °FClear.No wind80%30.08 "Hg10 mi
2:35 am1 °FClear.No wind82%30.09 "Hg10 mi
2:15 am3 °FClear.No wind83%30.09 "Hg10 mi
1:35 am2 °FClear.No wind83%30.10 "Hg10 mi
1:15 am3 °FClear.No wind84%30.10 "Hg10 mi
12:15 am4 °FClear.No wind84%30.11 "Hg10 mi
11:55 pm
Sun, Feb 5
5 °FClear.No wind84%30.11 "Hg10 mi
11:35 pm4 °FClear.No wind85%30.11 "Hg10 mi
11:15 pm4 °FClear.No wind87%30.11 "Hg10 mi
10:55 pm7 °FClear.No wind89%30.11 "Hg10 mi
10:35 pm4 °FClear.No wind84%30.11 "Hg10 mi
10:15 pm7 °FClear.No wind88%30.10 "Hg10 mi
9:55 pm7 °FClear.No wind86%30.10 "Hg10 mi
9:35 pm8 °FClear.No wind85%30.09 "Hg10 mi
9:15 pm8 °FClear.No wind84%30.10 "Hg10 mi
8:55 pm9 °FClear.No wind86%30.10 "Hg10 mi
8:35 pm11 °FClear.No wind83%30.09 "Hg10 mi
8:15 pm10 °FClear.No wind86%30.10 "Hg10 mi
7:55 pm12 °FClear.No wind84%30.09 "Hg10 mi
7:35 pm13 °FClear.No wind82%30.09 "Hg10 mi
7:15 pm14 °FClear.No wind82%30.10 "Hg10 mi
5:35 pm24 °FClear.No wind60%30.06 "Hg10 mi
5:15 pm23 °FSunny.No wind60%30.05 "Hg10 mi
4:55 pm26 °FSunny.No wind58%30.04 "Hg10 mi
4:15 pm26 °FSunny.6 mph57%30.03 "Hg10 mi
3:55 pm26 °FSunny.7 mph57%30.04 "Hg10 mi
3:35 pm26 °FSunny.3 mph58%30.02 "Hg10 mi
3:15 pm26 °FSunny.6 mph58%30.02 "Hg10 mi
2:55 pm26 °FSunny.8 mph59%30.01 "Hg10 mi
2:35 pm26 °FSunny.6 mph59%30.01 "Hg10 mi
2:15 pm26 °FSunny.5 mph60%30.00 "Hg10 mi
1:35 pm25 °FSunny.6 mph60%30.01 "Hg10 mi
1:15 pm25 °FSunny.8 mph60%30.01 "Hg10 mi
12:55 pm25 °FSunny.7 mph60%30.01 "Hg10 mi
12:15 pm24 °FSunny.6 mph61%30.01 "Hg10 mi
11:55 am24 °FSunny.7 mph62%30.00 "Hg10 mi
11:35 am23 °FSunny.5 mph64%30.00 "Hg10 mi
10:55 am21 °FSunny.No wind68%29.99 "Hg10 mi
10:15 am19 °FSunny.6 mph72%29.99 "Hg10 mi
9:55 am18 °FSunny.5 mph77%29.98 "Hg10 mi
9:35 am17 °FSunny.6 mph81%29.96 "Hg10 mi
8:55 am12 °FSunny.No wind90%29.94 "Hg10 mi
8:35 am10 °FSunny.No wind89%29.94 "Hg10 mi
8:15 am9 °FSunny.3 mph89%29.93 "Hg10 mi
7:55 am9 °FSunny.No wind89%29.92 "Hg10 mi
7:35 am8 °FSunny.5 mph89%29.91 "Hg10 mi
7:15 am11 °FClear.No wind86%29.90 "Hg10 mi
6:55 am11 °FClear.No wind87%29.89 "Hg10 mi
6:15 am11 °FClear.5 mph89%29.87 "Hg10 mi
Weather by CustomWeather, © 2023

See weather overview